sensor_id;sensor_type;location;lat;lon;timestamp;P1;durP1;ratioP1;P2;durP2;ratioP2
39674;SDS011;27790;50.840;4.386;2024-01-07T00:01:13;12.77;;;7.82;;
39674;SDS011;27790;50.840;4.386;2024-01-07T00:03:40;17.27;;;9.63;;
39674;SDS011;27790;50.840;4.386;2024-01-07T00:06:07;11.02;;;7.82;;
39674;SDS011;27790;50.840;4.386;2024-01-07T00:08:33;14.90;;;8.85;;
39674;SDS011;27790;50.840;4.386;2024-01-07T00:10:58;10.40;;;7.72;;
39674;SDS011;27790;50.840;4.386;2024-01-07T00:13:24;11.25;;;7.97;;
39674;SDS011;27790;50.840;4.386;2024-01-07T00:15:49;14.02;;;8.40;;
39674;SDS011;27790;50.840;4.386;2024-01-07T00:18:15;15.15;;;9.63;;
39674;SDS011;27790;50.840;4.386;2024-01-07T00:20:40;12.43;;;8.85;;
39674;SDS011;27790;50.840;4.386;2024-01-07T00:23:06;13.07;;;8.57;;
39674;SDS011;27790;50.840;4.386;2024-01-07T00:25:31;14.85;;;8.70;;
39674;SDS011;27790;50.840;4.386;2024-01-07T00:27:57;13.15;;;9.07;;
39674;SDS011;27790;50.840;4.386;2024-01-07T00:30:22;13.43;;;8.20;;
39674;SDS011;27790;50.840;4.386;2024-01-07T00:32:48;11.55;;;8.65;;
39674;SDS011;27790;50.840;4.386;2024-01-07T00:35:16;12.50;;;8.90;;
39674;SDS011;27790;50.840;4.386;2024-01-07T00:37:41;13.38;;;9.18;;
39674;SDS011;27790;50.840;4.386;2024-01-07T00:40:07;12.23;;;8.70;;
39674;SDS011;27790;50.840;4.386;2024-01-07T00:42:33;13.73;;;8.85;;
39674;SDS011;27790;50.840;4.386;2024-01-07T00:44:59;13.10;;;8.93;;
39674;SDS011;27790;50.840;4.386;2024-01-07T00:47:24;14.88;;;8.55;;
39674;SDS011;27790;50.840;4.386;2024-01-07T00:49:50;12.98;;;9.45;;
39674;SDS011;27790;50.840;4.386;2024-01-07T00:52:15;13.35;;;8.85;;
39674;SDS011;27790;50.840;4.386;2024-01-07T00:54:41;14.30;;;9.50;;
39674;SDS011;27790;50.840;4.386;2024-01-07T00:57:06;12.75;;;8.93;;
39674;SDS011;27790;50.840;4.386;2024-01-07T00:59:32;15.32;;;9.52;;
39674;SDS011;27790;50.840;4.386;2024-01-07T01:01:57;15.65;;;9.25;;
39674;SDS011;27790;50.840;4.386;2024-01-07T01:04:23;14.27;;;9.55;;
39674;SDS011;27790;50.840;4.386;2024-01-07T01:06:49;9.98;;;8.18;;
39674;SDS011;27790;50.840;4.386;2024-01-07T01:09:14;13.95;;;9.85;;
39674;SDS011;27790;50.840;4.386;2024-01-07T01:11:40;14.10;;;8.98;;
39674;SDS011;27790;50.840;4.386;2024-01-07T01:14:05;11.63;;;8.40;;
39674;SDS011;27790;50.840;4.386;2024-01-07T01:16:31;14.10;;;9.10;;
39674;SDS011;27790;50.840;4.386;2024-01-07T01:18:56;15.43;;;10.18;;
39674;SDS011;27790;50.840;4.386;2024-01-07T01:21:22;13.77;;;9.35;;
39674;SDS011;27790;50.840;4.386;2024-01-07T01:23:48;12.70;;;8.65;;
39674;SDS011;27790;50.840;4.386;2024-01-07T01:26:14;14.02;;;9.15;;
39674;SDS011;27790;50.840;4.386;2024-01-07T01:28:40;13.85;;;9.10;;
39674;SDS011;27790;50.840;4.386;2024-01-07T01:31:05;13.95;;;8.85;;
39674;SDS011;27790;50.840;4.386;2024-01-07T01:33:31;12.95;;;9.55;;
39674;SDS011;27790;50.840;4.386;2024-01-07T01:35:57;13.68;;;9.52;;
39674;SDS011;27790;50.840;4.386;2024-01-07T01:38:22;11.40;;;8.75;;
39674;SDS011;27790;50.840;4.386;2024-01-07T01:40:54;13.45;;;8.60;;
39674;SDS011;27790;50.840;4.386;2024-01-07T01:43:26;17.50;;;10.13;;
39674;SDS011;27790;50.840;4.386;2024-01-07T01:48:19;12.68;;;8.70;;
39674;SDS011;27790;50.840;4.386;2024-01-07T01:50:45;11.88;;;8.65;;
39674;SDS011;27790;50.840;4.386;2024-01-07T01:53:12;13.60;;;9.65;;
39674;SDS011;27790;50.840;4.386;2024-01-07T01:55:38;14.30;;;9.15;;
39674;SDS011;27790;50.840;4.386;2024-01-07T01:58:03;15.70;;;9.43;;
39674;SDS011;27790;50.840;4.386;2024-01-07T02:00:29;12.50;;;9.68;;
39674;SDS011;27790;50.840;4.386;2024-01-07T02:02:55;15.18;;;10.00;;
39674;SDS011;27790;50.840;4.386;2024-01-07T02:05:21;14.32;;;10.88;;
39674;SDS011;27790;50.840;4.386;2024-01-07T02:07:47;12.63;;;9.27;;
39674;SDS011;27790;50.840;4.386;2024-01-07T02:10:13;15.40;;;9.57;;
39674;SDS011;27790;50.840;4.386;2024-01-07T02:12:38;14.70;;;10.27;;
39674;SDS011;27790;50.840;4.386;2024-01-07T02:15:04;13.00;;;8.68;;
39674;SDS011;27790;50.840;4.386;2024-01-07T02:17:30;13.68;;;8.88;;
39674;SDS011;27790;50.840;4.386;2024-01-07T02:19:56;16.25;;;9.63;;
39674;SDS011;27790;50.840;4.386;2024-01-07T02:22:22;14.32;;;9.57;;
39674;SDS011;27790;50.840;4.386;2024-01-07T02:24:47;11.77;;;8.07;;
39674;SDS011;27790;50.840;4.386;2024-01-07T02:27:13;12.52;;;8.63;;
39674;SDS011;27790;50.840;4.386;2024-01-07T02:29:38;11.52;;;8.35;;
39674;SDS011;27790;50.840;4.386;2024-01-07T02:32:04;12.82;;;7.85;;
39674;SDS011;27790;50.840;4.386;2024-01-07T02:34:30;12.77;;;7.57;;
39674;SDS011;27790;50.840;4.386;2024-01-07T02:36:56;12.35;;;8.43;;
39674;SDS011;27790;50.840;4.386;2024-01-07T02:39:21;13.40;;;8.65;;
39674;SDS011;27790;50.840;4.386;2024-01-07T02:41:47;13.90;;;8.45;;
39674;SDS011;27790;50.840;4.386;2024-01-07T02:44:13;13.55;;;8.25;;
39674;SDS011;27790;50.840;4.386;2024-01-07T02:46:38;11.90;;;8.32;;
39674;SDS011;27790;50.840;4.386;2024-01-07T02:49:04;12.52;;;8.90;;
39674;SDS011;27790;50.840;4.386;2024-01-07T02:51:29;13.32;;;9.32;;
39674;SDS011;27790;50.840;4.386;2024-01-07T02:53:55;11.05;;;8.27;;
39674;SDS011;27790;50.840;4.386;2024-01-07T02:56:20;14.32;;;9.27;;
39674;SDS011;27790;50.840;4.386;2024-01-07T02:58:46;13.07;;;9.13;;
39674;SDS011;27790;50.840;4.386;2024-01-07T03:01:12;12.18;;;8.70;;
39674;SDS011;27790;50.840;4.386;2024-01-07T03:03:37;13.23;;;9.35;;
39674;SDS011;27790;50.840;4.386;2024-01-07T03:06:03;14.98;;;10.40;;
39674;SDS011;27790;50.840;4.386;2024-01-07T03:08:29;14.30;;;10.23;;
39674;SDS011;27790;50.840;4.386;2024-01-07T03:10:55;18.27;;;10.25;;
39674;SDS011;27790;50.840;4.386;2024-01-07T03:13:20;17.17;;;10.35;;
39674;SDS011;27790;50.840;4.386;2024-01-07T03:15:46;16.08;;;9.63;;
39674;SDS011;27790;50.840;4.386;2024-01-07T03:18:11;16.15;;;10.00;;
39674;SDS011;27790;50.840;4.386;2024-01-07T03:20:37;15.80;;;10.00;;
39674;SDS011;27790;50.840;4.386;2024-01-07T03:23:02;16.48;;;11.13;;
39674;SDS011;27790;50.840;4.386;2024-01-07T03:25:28;18.10;;;11.95;;
39674;SDS011;27790;50.840;4.386;2024-01-07T03:27:54;18.45;;;11.82;;
39674;SDS011;27790;50.840;4.386;2024-01-07T03:30:19;20.02;;;12.35;;
39674;SDS011;27790;50.840;4.386;2024-01-07T03:32:45;18.67;;;11.50;;
39674;SDS011;27790;50.840;4.386;2024-01-07T03:35:10;19.63;;;12.60;;
39674;SDS011;27790;50.840;4.386;2024-01-07T03:37:36;20.80;;;12.73;;
39674;SDS011;27790;50.840;4.386;2024-01-07T03:40:02;24.65;;;13.52;;
39674;SDS011;27790;50.840;4.386;2024-01-07T03:42:27;21.75;;;12.60;;
39674;SDS011;27790;50.840;4.386;2024-01-07T03:44:53;22.65;;;13.70;;
39674;SDS011;27790;50.840;4.386;2024-01-07T03:47:18;21.90;;;13.68;;
39674;SDS011;27790;50.840;4.386;2024-01-07T03:49:44;18.98;;;12.63;;
39674;SDS011;27790;50.840;4.386;2024-01-07T03:52:09;21.92;;;13.05;;
39674;SDS011;27790;50.840;4.386;2024-01-07T03:54:35;20.17;;;13.38;;
39674;SDS011;27790;50.840;4.386;2024-01-07T03:57:00;22.75;;;13.07;;
39674;SDS011;27790;50.840;4.386;2024-01-07T03:59:26;22.83;;;13.60;;
39674;SDS011;27790;50.840;4.386;2024-01-07T04:01:55;21.10;;;12.85;;
39674;SDS011;27790;50.840;4.386;2024-01-07T04:04:21;20.95;;;13.63;;
39674;SDS011;27790;50.840;4.386;2024-01-07T04:06:47;22.55;;;13.18;;
39674;SDS011;27790;50.840;4.386;2024-01-07T04:09:13;25.48;;;15.20;;
39674;SDS011;27790;50.840;4.386;2024-01-07T04:11:39;24.73;;;14.18;;
39674;SDS011;27790;50.840;4.386;2024-01-07T04:14:05;24.17;;;14.80;;
39674;SDS011;27790;50.840;4.386;2024-01-07T04:16:31;28.90;;;15.35;;
39674;SDS011;27790;50.840;4.386;2024-01-07T04:18:56;30.33;;;14.77;;
39674;SDS011;27790;50.840;4.386;2024-01-07T04:21:22;28.48;;;15.40;;
39674;SDS011;27790;50.840;4.386;2024-01-07T04:23:47;27.20;;;15.95;;
39674;SDS011;27790;50.840;4.386;2024-01-07T04:26:13;27.27;;;15.85;;
39674;SDS011;27790;50.840;4.386;2024-01-07T04:28:40;27.25;;;15.30;;
39674;SDS011;27790;50.840;4.386;2024-01-07T04:31:07;30.55;;;16.92;;
39674;SDS011;27790;50.840;4.386;2024-01-07T04:33:32;28.08;;;15.57;;
39674;SDS011;27790;50.840;4.386;2024-01-07T04:35:58;35.08;;;18.73;;
39674;SDS011;27790;50.840;4.386;2024-01-07T04:38:25;39.33;;;18.25;;
39674;SDS011;27790;50.840;4.386;2024-01-07T04:40:51;33.70;;;17.77;;
39674;SDS011;27790;50.840;4.386;2024-01-07T04:43:17;37.60;;;19.20;;
39674;SDS011;27790;50.840;4.386;2024-01-07T04:45:43;29.27;;;16.92;;
39674;SDS011;27790;50.840;4.386;2024-01-07T04:48:09;38.97;;;19.27;;
39674;SDS011;27790;50.840;4.386;2024-01-07T04:50:34;34.00;;;18.55;;
39674;SDS011;27790;50.840;4.386;2024-01-07T04:53:00;36.05;;;18.95;;
39674;SDS011;27790;50.840;4.386;2024-01-07T04:55:25;35.53;;;17.65;;
39674;SDS011;27790;50.840;4.386;2024-01-07T04:57:52;35.35;;;20.20;;
39674;SDS011;27790;50.840;4.386;2024-01-07T05:00:17;34.67;;;18.98;;
39674;SDS011;27790;50.840;4.386;2024-01-07T05:02:43;34.35;;;19.42;;
39674;SDS011;27790;50.840;4.386;2024-01-07T05:05:08;32.90;;;19.75;;
39674;SDS011;27790;50.840;4.386;2024-01-07T05:07:34;34.65;;;20.88;;
39674;SDS011;27790;50.840;4.386;2024-01-07T05:09:59;38.33;;;19.98;;
39674;SDS011;27790;50.840;4.386;2024-01-07T05:12:25;31.45;;;18.90;;
39674;SDS011;27790;50.840;4.386;2024-01-07T05:14:51;39.15;;;19.30;;
39674;SDS011;27790;50.840;4.386;2024-01-07T05:17:17;34.97;;;19.38;;
39674;SDS011;27790;50.840;4.386;2024-01-07T05:19:43;34.58;;;19.77;;
39674;SDS011;27790;50.840;4.386;2024-01-07T05:22:08;36.05;;;18.52;;
39674;SDS011;27790;50.840;4.386;2024-01-07T05:24:36;40.25;;;20.13;;
39674;SDS011;27790;50.840;4.386;2024-01-07T05:27:03;38.70;;;20.05;;
39674;SDS011;27790;50.840;4.386;2024-01-07T05:29:29;38.50;;;19.67;;
39674;SDS011;27790;50.840;4.386;2024-01-07T05:31:55;33.25;;;18.42;;
39674;SDS011;27790;50.840;4.386;2024-01-07T05:34:20;35.30;;;18.55;;
39674;SDS011;27790;50.840;4.386;2024-01-07T05:36:46;36.05;;;17.65;;
39674;SDS011;27790;50.840;4.386;2024-01-07T05:39:11;32.08;;;17.45;;
39674;SDS011;27790;50.840;4.386;2024-01-07T05:41:37;36.03;;;19.23;;
39674;SDS011;27790;50.840;4.386;2024-01-07T05:44:05;37.17;;;19.80;;
39674;SDS011;27790;50.840;4.386;2024-01-07T05:46:31;34.05;;;18.65;;
39674;SDS011;27790;50.840;4.386;2024-01-07T05:48:58;30.48;;;17.63;;
39674;SDS011;27790;50.840;4.386;2024-01-07T05:51:23;31.17;;;17.50;;
39674;SDS011;27790;50.840;4.386;2024-01-07T05:53:49;32.03;;;17.70;;
39674;SDS011;27790;50.840;4.386;2024-01-07T05:56:14;31.63;;;17.95;;
39674;SDS011;27790;50.840;4.386;2024-01-07T05:58:40;31.52;;;18.23;;
39674;SDS011;27790;50.840;4.386;2024-01-07T06:01:07;32.88;;;17.35;;
39674;SDS011;27790;50.840;4.386;2024-01-07T06:03:33;37.25;;;19.33;;
39674;SDS011;27790;50.840;4.386;2024-01-07T06:05:59;33.03;;;17.63;;
39674;SDS011;27790;50.840;4.386;2024-01-07T06:08:25;32.92;;;18.13;;
39674;SDS011;27790;50.840;4.386;2024-01-07T06:10:51;32.22;;;17.55;;
39674;SDS011;27790;50.840;4.386;2024-01-07T06:13:16;36.15;;;18.27;;
39674;SDS011;27790;50.840;4.386;2024-01-07T06:15:43;34.22;;;18.38;;
39674;SDS011;27790;50.840;4.386;2024-01-07T06:18:08;34.10;;;18.35;;
39674;SDS011;27790;50.840;4.386;2024-01-07T06:20:34;30.75;;;18.33;;
39674;SDS011;27790;50.840;4.386;2024-01-07T06:22:59;40.00;;;19.88;;
39674;SDS011;27790;50.840;4.386;2024-01-07T06:25:25;32.85;;;18.05;;
39674;SDS011;27790;50.840;4.386;2024-01-07T06:27:51;34.95;;;18.65;;
39674;SDS011;27790;50.840;4.386;2024-01-07T06:30:17;40.47;;;20.17;;
39674;SDS011;27790;50.840;4.386;2024-01-07T06:32:44;38.10;;;20.15;;
39674;SDS011;27790;50.840;4.386;2024-01-07T06:35:10;39.03;;;19.70;;
39674;SDS011;27790;50.840;4.386;2024-01-07T06:37:36;34.20;;;19.13;;
39674;SDS011;27790;50.840;4.386;2024-01-07T06:40:01;35.97;;;19.38;;
39674;SDS011;27790;50.840;4.386;2024-01-07T06:42:27;32.63;;;18.75;;
39674;SDS011;27790;50.840;4.386;2024-01-07T06:44:53;34.85;;;18.48;;
39674;SDS011;27790;50.840;4.386;2024-01-07T06:47:18;38.35;;;20.23;;
39674;SDS011;27790;50.840;4.386;2024-01-07T06:49:44;37.05;;;18.98;;
39674;SDS011;27790;50.840;4.386;2024-01-07T06:52:10;39.03;;;20.75;;
39674;SDS011;27790;50.840;4.386;2024-01-07T06:54:35;35.67;;;19.33;;
39674;SDS011;27790;50.840;4.386;2024-01-07T06:57:01;39.38;;;20.00;;
39674;SDS011;27790;50.840;4.386;2024-01-07T06:59:27;40.92;;;20.10;;
39674;SDS011;27790;50.840;4.386;2024-01-07T07:01:53;34.75;;;17.80;;
39674;SDS011;27790;50.840;4.386;2024-01-07T07:04:20;41.70;;;19.23;;
39674;SDS011;27790;50.840;4.386;2024-01-07T07:06:46;37.20;;;19.77;;
39674;SDS011;27790;50.840;4.386;2024-01-07T07:09:12;33.92;;;19.05;;
39674;SDS011;27790;50.840;4.386;2024-01-07T07:11:38;44.90;;;19.65;;
39674;SDS011;27790;50.840;4.386;2024-01-07T07:14:03;36.53;;;17.80;;
39674;SDS011;27790;50.840;4.386;2024-01-07T07:16:29;39.42;;;19.83;;
39674;SDS011;27790;50.840;4.386;2024-01-07T07:18:54;39.67;;;20.42;;
39674;SDS011;27790;50.840;4.386;2024-01-07T07:21:20;42.58;;;19.38;;
39674;SDS011;27790;50.840;4.386;2024-01-07T07:23:45;42.65;;;18.25;;
39674;SDS011;27790;50.840;4.386;2024-01-07T07:26:11;37.92;;;19.17;;
39674;SDS011;27790;50.840;4.386;2024-01-07T07:28:37;43.38;;;18.77;;
39674;SDS011;27790;50.840;4.386;2024-01-07T07:31:02;38.28;;;18.02;;
39674;SDS011;27790;50.840;4.386;2024-01-07T07:33:28;38.10;;;18.10;;
39674;SDS011;27790;50.840;4.386;2024-01-07T07:35:53;36.90;;;18.13;;
39674;SDS011;27790;50.840;4.386;2024-01-07T07:38:19;41.17;;;18.63;;
39674;SDS011;27790;50.840;4.386;2024-01-07T07:40:44;39.80;;;17.30;;
39674;SDS011;27790;50.840;4.386;2024-01-07T07:43:17;48.40;;;20.38;;
39674;SDS011;27790;50.840;4.386;2024-01-07T07:45:43;48.53;;;21.80;;
39674;SDS011;27790;50.840;4.386;2024-01-07T07:48:08;43.17;;;20.83;;
39674;SDS011;27790;50.840;4.386;2024-01-07T07:50:34;43.35;;;17.83;;
39674;SDS011;27790;50.840;4.386;2024-01-07T07:52:59;44.28;;;19.90;;
39674;SDS011;27790;50.840;4.386;2024-01-07T07:55:25;35.90;;;19.35;;
39674;SDS011;27790;50.840;4.386;2024-01-07T07:57:52;50.42;;;22.27;;
39674;SDS011;27790;50.840;4.386;2024-01-07T08:00:17;41.65;;;21.23;;
39674;SDS011;27790;50.840;4.386;2024-01-07T08:02:43;39.92;;;19.90;;
39674;SDS011;27790;50.840;4.386;2024-01-07T08:05:09;43.17;;;19.55;;
39674;SDS011;27790;50.840;4.386;2024-01-07T08:07:34;47.90;;;20.75;;
39674;SDS011;27790;50.840;4.386;2024-01-07T08:10:00;43.95;;;21.15;;
39674;SDS011;27790;50.840;4.386;2024-01-07T08:12:25;39.13;;;20.05;;
39674;SDS011;27790;50.840;4.386;2024-01-07T08:14:51;38.00;;;18.08;;
39674;SDS011;27790;50.840;4.386;2024-01-07T08:17:17;35.28;;;18.63;;
39674;SDS011;27790;50.840;4.386;2024-01-07T08:19:42;43.78;;;18.77;;
39674;SDS011;27790;50.840;4.386;2024-01-07T08:22:08;40.78;;;19.33;;
39674;SDS011;27790;50.840;4.386;2024-01-07T08:24:34;40.35;;;20.73;;
39674;SDS011;27790;50.840;4.386;2024-01-07T08:27:00;36.25;;;18.90;;
39674;SDS011;27790;50.840;4.386;2024-01-07T08:29:26;39.50;;;18.77;;
39674;SDS011;27790;50.840;4.386;2024-01-07T08:31:52;43.60;;;18.73;;
39674;SDS011;27790;50.840;4.386;2024-01-07T08:34:17;42.88;;;18.55;;
39674;SDS011;27790;50.840;4.386;2024-01-07T08:36:43;38.35;;;17.30;;
39674;SDS011;27790;50.840;4.386;2024-01-07T08:39:08;35.78;;;16.88;;
39674;SDS011;27790;50.840;4.386;2024-01-07T08:41:35;31.17;;;14.32;;
39674;SDS011;27790;50.840;4.386;2024-01-07T08:44:00;38.60;;;15.38;;
39674;SDS011;27790;50.840;4.386;2024-01-07T08:46:26;31.85;;;15.48;;
39674;SDS011;27790;50.840;4.386;2024-01-07T08:48:51;36.53;;;17.27;;
39674;SDS011;27790;50.840;4.386;2024-01-07T08:51:17;36.33;;;17.70;;
39674;SDS011;27790;50.840;4.386;2024-01-07T08:53:42;29.48;;;16.10;;
39674;SDS011;27790;50.840;4.386;2024-01-07T08:56:08;35.40;;;16.60;;
39674;SDS011;27790;50.840;4.386;2024-01-07T08:58:34;31.02;;;15.43;;
39674;SDS011;27790;50.840;4.386;2024-01-07T09:00:59;29.38;;;15.23;;
39674;SDS011;27790;50.840;4.386;2024-01-07T09:03:25;29.90;;;15.18;;
39674;SDS011;27790;50.840;4.386;2024-01-07T09:05:50;27.67;;;15.48;;
39674;SDS011;27790;50.840;4.386;2024-01-07T09:08:16;27.05;;;14.25;;
39674;SDS011;27790;50.840;4.386;2024-01-07T09:10:42;28.98;;;15.32;;
39674;SDS011;27790;50.840;4.386;2024-01-07T09:13:07;28.73;;;15.57;;
39674;SDS011;27790;50.840;4.386;2024-01-07T09:15:33;29.17;;;14.55;;
39674;SDS011;27790;50.840;4.386;2024-01-07T09:17:59;26.63;;;15.68;;
39674;SDS011;27790;50.840;4.386;2024-01-07T09:20:25;30.10;;;15.90;;
39674;SDS011;27790;50.840;4.386;2024-01-07T09:22:50;29.40;;;16.52;;
39674;SDS011;27790;50.840;4.386;2024-01-07T09:25:16;28.38;;;15.35;;
39674;SDS011;27790;50.840;4.386;2024-01-07T09:27:41;28.77;;;16.83;;
39674;SDS011;27790;50.840;4.386;2024-01-07T09:30:08;22.92;;;15.05;;
39674;SDS011;27790;50.840;4.386;2024-01-07T09:32:35;25.95;;;15.38;;
39674;SDS011;27790;50.840;4.386;2024-01-07T09:35:01;26.33;;;15.15;;
39674;SDS011;27790;50.840;4.386;2024-01-07T09:37:27;25.67;;;14.25;;
39674;SDS011;27790;50.840;4.386;2024-01-07T09:39:53;21.40;;;13.90;;
39674;SDS011;27790;50.840;4.386;2024-01-07T09:42:19;26.88;;;14.93;;
39674;SDS011;27790;50.840;4.386;2024-01-07T09:44:45;20.33;;;11.85;;
39674;SDS011;27790;50.840;4.386;2024-01-07T09:47:11;23.55;;;13.80;;
39674;SDS011;27790;50.840;4.386;2024-01-07T09:49:41;28.50;;;15.45;;
39674;SDS011;27790;50.840;4.386;2024-01-07T09:52:08;24.10;;;12.98;;
39674;SDS011;27790;50.840;4.386;2024-01-07T09:54:38;23.27;;;14.45;;
39674;SDS011;27790;50.840;4.386;2024-01-07T09:57:05;24.52;;;15.02;;
39674;SDS011;27790;50.840;4.386;2024-01-07T09:59:32;27.27;;;14.98;;
39674;SDS011;27790;50.840;4.386;2024-01-07T10:01:58;26.50;;;16.10;;
39674;SDS011;27790;50.840;4.386;2024-01-07T10:04:24;27.38;;;14.93;;
39674;SDS011;27790;50.840;4.386;2024-01-07T10:06:51;31.08;;;16.65;;
39674;SDS011;27790;50.840;4.386;2024-01-07T10:09:19;29.42;;;15.93;;
39674;SDS011;27790;50.840;4.386;2024-01-07T10:11:46;23.25;;;15.75;;
39674;SDS011;27790;50.840;4.386;2024-01-07T10:14:12;25.92;;;15.50;;
39674;SDS011;27790;50.840;4.386;2024-01-07T10:16:38;28.92;;;14.90;;
39674;SDS011;27790;50.840;4.386;2024-01-07T10:19:04;19.48;;;11.85;;
39674;SDS011;27790;50.840;4.386;2024-01-07T10:21:29;27.10;;;14.90;;
39674;SDS011;27790;50.840;4.386;2024-01-07T10:24:08;27.50;;;15.75;;
39674;SDS011;27790;50.840;4.386;2024-01-07T10:26:35;27.23;;;15.85;;
39674;SDS011;27790;50.840;4.386;2024-01-07T10:29:02;28.02;;;16.80;;
39674;SDS011;27790;50.840;4.386;2024-01-07T10:31:27;31.10;;;17.00;;
39674;SDS011;27790;50.840;4.386;2024-01-07T10:33:54;27.35;;;16.58;;
39674;SDS011;27790;50.840;4.386;2024-01-07T10:36:21;30.48;;;16.08;;
39674;SDS011;27790;50.840;4.386;2024-01-07T10:38:47;25.95;;;15.25;;
39674;SDS011;27790;50.840;4.386;2024-01-07T10:41:13;22.25;;;14.38;;
39674;SDS011;27790;50.840;4.386;2024-01-07T10:43:41;26.33;;;14.70;;
39674;SDS011;27790;50.840;4.386;2024-01-07T10:46:11;23.70;;;14.75;;
39674;SDS011;27790;50.840;4.386;2024-01-07T10:48:38;26.67;;;14.35;;
39674;SDS011;27790;50.840;4.386;2024-01-07T10:51:07;32.10;;;16.60;;
39674;SDS011;27790;50.840;4.386;2024-01-07T10:53:33;28.02;;;16.55;;
39674;SDS011;27790;50.840;4.386;2024-01-07T10:56:04;31.25;;;17.88;;
39674;SDS011;27790;50.840;4.386;2024-01-07T10:58:32;29.02;;;16.52;;
39674;SDS011;27790;50.840;4.386;2024-01-07T11:01:01;26.98;;;17.02;;
39674;SDS011;27790;50.840;4.386;2024-01-07T11:03:38;30.15;;;16.73;;
39674;SDS011;27790;50.840;4.386;2024-01-07T11:06:16;28.42;;;17.08;;
39674;SDS011;27790;50.840;4.386;2024-01-07T11:08:55;32.10;;;18.13;;
39674;SDS011;27790;50.840;4.386;2024-01-07T11:11:31;27.33;;;16.58;;
39674;SDS011;27790;50.840;4.386;2024-01-07T11:14:02;24.90;;;15.85;;
39674;SDS011;27790;50.840;4.386;2024-01-07T11:16:41;25.15;;;15.35;;
39674;SDS011;27790;50.840;4.386;2024-01-07T11:19:07;25.85;;;15.45;;
39674;SDS011;27790;50.840;4.386;2024-01-07T11:21:33;33.45;;;17.33;;
39674;SDS011;27790;50.840;4.386;2024-01-07T11:23:58;25.55;;;14.02;;
39674;SDS011;27790;50.840;4.386;2024-01-07T11:26:24;21.88;;;12.73;;
39674;SDS011;27790;50.840;4.386;2024-01-07T11:28:55;22.83;;;13.15;;
39674;SDS011;27790;50.840;4.386;2024-01-07T11:31:42;25.60;;;13.55;;
39674;SDS011;27790;50.840;4.386;2024-01-07T11:34:08;19.63;;;12.48;;
39674;SDS011;27790;50.840;4.386;2024-01-07T11:36:37;25.13;;;13.32;;
39674;SDS011;27790;50.840;4.386;2024-01-07T11:39:03;20.95;;;12.43;;
39674;SDS011;27790;50.840;4.386;2024-01-07T11:41:32;23.98;;;13.38;;
39674;SDS011;27790;50.840;4.386;2024-01-07T11:43:59;21.35;;;13.40;;
39674;SDS011;27790;50.840;4.386;2024-01-07T11:46:28;22.27;;;12.57;;
39674;SDS011;27790;50.840;4.386;2024-01-07T11:48:56;19.65;;;12.20;;
39674;SDS011;27790;50.840;4.386;2024-01-07T11:51:27;23.73;;;12.82;;
39674;SDS011;27790;50.840;4.386;2024-01-07T11:53:57;18.65;;;11.02;;
39674;SDS011;27790;50.840;4.386;2024-01-07T11:56:24;19.00;;;12.13;;
39674;SDS011;27790;50.840;4.386;2024-01-07T11:58:51;14.48;;;9.48;;
39674;SDS011;27790;50.840;4.386;2024-01-07T12:01:16;25.13;;;13.85;;
39674;SDS011;27790;50.840;4.386;2024-01-07T12:03:45;24.63;;;13.60;;
39674;SDS011;27790;50.840;4.386;2024-01-07T12:06:11;27.08;;;14.45;;
39674;SDS011;27790;50.840;4.386;2024-01-07T12:08:40;24.58;;;12.70;;
39674;SDS011;27790;50.840;4.386;2024-01-07T12:11:07;22.30;;;12.30;;
39674;SDS011;27790;50.840;4.386;2024-01-07T12:13:33;21.15;;;12.43;;
39674;SDS011;27790;50.840;4.386;2024-01-07T12:15:59;20.38;;;12.45;;
39674;SDS011;27790;50.840;4.386;2024-01-07T12:18:25;20.20;;;12.82;;
39674;SDS011;27790;50.840;4.386;2024-01-07T12:20:55;22.45;;;11.25;;
39674;SDS011;27790;50.840;4.386;2024-01-07T12:23:22;22.05;;;11.73;;
39674;SDS011;27790;50.840;4.386;2024-01-07T12:25:48;24.38;;;12.02;;
39674;SDS011;27790;50.840;4.386;2024-01-07T12:28:13;21.30;;;11.93;;
39674;SDS011;27790;50.840;4.386;2024-01-07T12:30:39;22.65;;;12.40;;
39674;SDS011;27790;50.840;4.386;2024-01-07T12:33:04;18.80;;;9.52;;
39674;SDS011;27790;50.840;4.386;2024-01-07T12:35:30;17.08;;;11.10;;
39674;SDS011;27790;50.840;4.386;2024-01-07T12:37:56;18.92;;;11.80;;
39674;SDS011;27790;50.840;4.386;2024-01-07T12:40:24;19.50;;;11.63;;
39674;SDS011;27790;50.840;4.386;2024-01-07T12:42:51;20.92;;;12.00;;
39674;SDS011;27790;50.840;4.386;2024-01-07T12:45:17;20.17;;;11.98;;
39674;SDS011;27790;50.840;4.386;2024-01-07T12:47:43;18.95;;;9.98;;
39674;SDS011;27790;50.840;4.386;2024-01-07T12:50:10;21.48;;;10.98;;
39674;SDS011;27790;50.840;4.386;2024-01-07T12:52:37;22.98;;;11.38;;
39674;SDS011;27790;50.840;4.386;2024-01-07T12:55:04;22.98;;;10.73;;
39674;SDS011;27790;50.840;4.386;2024-01-07T12:57:30;16.63;;;10.65;;
39674;SDS011;27790;50.840;4.386;2024-01-07T12:59:55;20.45;;;10.32;;
39674;SDS011;27790;50.840;4.386;2024-01-07T13:02:21;20.52;;;11.65;;
39674;SDS011;27790;50.840;4.386;2024-01-07T13:04:46;24.10;;;11.60;;
39674;SDS011;27790;50.840;4.386;2024-01-07T13:07:12;19.08;;;12.48;;
39674;SDS011;27790;50.840;4.386;2024-01-07T13:09:37;22.08;;;11.38;;
39674;SDS011;27790;50.840;4.386;2024-01-07T13:12:03;18.08;;;11.10;;
39674;SDS011;27790;50.840;4.386;2024-01-07T13:14:29;21.67;;;11.98;;
39674;SDS011;27790;50.840;4.386;2024-01-07T13:16:55;18.00;;;11.10;;
39674;SDS011;27790;50.840;4.386;2024-01-07T13:19:20;32.20;;;12.48;;
39674;SDS011;27790;50.840;4.386;2024-01-07T13:21:46;17.95;;;10.75;;
39674;SDS011;27790;50.840;4.386;2024-01-07T13:24:12;18.13;;;10.27;;
39674;SDS011;27790;50.840;4.386;2024-01-07T13:26:37;18.45;;;12.13;;
39674;SDS011;27790;50.840;4.386;2024-01-07T13:29:03;15.02;;;10.65;;
39674;SDS011;27790;50.840;4.386;2024-01-07T13:31:29;15.23;;;10.15;;
39674;SDS011;27790;50.840;4.386;2024-01-07T13:33:54;14.38;;;9.55;;
39674;SDS011;27790;50.840;4.386;2024-01-07T13:36:20;15.77;;;9.93;;
39674;SDS011;27790;50.840;4.386;2024-01-07T13:38:45;16.92;;;10.15;;
39674;SDS011;27790;50.840;4.386;2024-01-07T13:41:14;16.60;;;10.20;;
39674;SDS011;27790;50.840;4.386;2024-01-07T13:43:41;14.48;;;10.52;;
39674;SDS011;27790;50.840;4.386;2024-01-07T13:46:07;18.58;;;11.30;;
39674;SDS011;27790;50.840;4.386;2024-01-07T13:48:34;18.10;;;11.32;;
39674;SDS011;27790;50.840;4.386;2024-01-07T13:51:00;17.10;;;11.07;;
39674;SDS011;27790;50.840;4.386;2024-01-07T13:53:25;16.80;;;8.93;;
39674;SDS011;27790;50.840;4.386;2024-01-07T13:55:51;17.98;;;9.50;;
39674;SDS011;27790;50.840;4.386;2024-01-07T13:58:17;16.23;;;10.60;;
39674;SDS011;27790;50.840;4.386;2024-01-07T14:00:44;15.38;;;10.65;;
39674;SDS011;27790;50.840;4.386;2024-01-07T14:03:10;12.98;;;8.95;;
39674;SDS011;27790;50.840;4.386;2024-01-07T14:05:36;11.95;;;7.88;;
39674;SDS011;27790;50.840;4.386;2024-01-07T14:08:02;15.05;;;9.43;;
39674;SDS011;27790;50.840;4.386;2024-01-07T14:10:27;16.38;;;10.40;;
39674;SDS011;27790;50.840;4.386;2024-01-07T14:12:54;14.93;;;9.63;;
39674;SDS011;27790;50.840;4.386;2024-01-07T14:15:19;13.27;;;9.05;;
39674;SDS011;27790;50.840;4.386;2024-01-07T14:17:45;15.93;;;9.27;;
39674;SDS011;27790;50.840;4.386;2024-01-07T14:20:10;12.82;;;9.98;;
39674;SDS011;27790;50.840;4.386;2024-01-07T14:22:36;13.35;;;9.55;;